SBBRYZYX KWBCYMYX SOZZMAMX SYZZMAMX TBPBYMYX TNCCYMYX

TNCAYMYX TFFFYMYX TFFRYMYX TTPPYMYX EGZZMNAM

181600 SMJPYMYX

FTSM20 SMJP 181600

TAF SMJP 181600Z 1818/1918 12012KT 9999 SCT035 TX34/1818Z TN23/1910Z BECMG 1822/1823 VRB02KT CAVOK TEMPO 1909/1912 4000 BR FM191200 12012KT 9999 SCT020=

 


TAF SMZO 181600Z 1818/1918 12012KT 9999 SCT035 TX34/1818Z TN25/1910Z BECMG 1822/1823 04005KT CAVOK FM181200 12012KT 9999 SCT020=

 

 

NR

SEPTEMBER 18, 2014